Time;durP1;ratioP1;P1;durP2;ratioP2;P2;SDS_P1;SDS_P2;PMS_P1;PMS_P2;Temp;Humidity;BMP_temperature;BMP_pressure;BME280_temperature;BME280_humidity;BME280_pressure;Samples;Min_cycle;Max_cycle;Signal;HPM_P1;HPM_P2
2023/10/19 00:00:44;;;;;;;24.02;14.80;;;10.70;99.90;;;;;;6238097;28;20053;-77
2023/10/19 00:03:45;;;;;;;20.48;13.88;;;10.80;99.90;;;;;;6245509;28;20088;-76
2023/10/19 00:06:48;;;;;;;22.95;15.52;;;10.80;99.90;;;;;;6236793;28;20072;-76
2023/10/19 00:09:53;;;;;;;25.17;15.13;;;10.90;99.90;;;;;;6221576;28;20046;-77
2023/10/19 00:13:00;;;;;;;25.42;15.50;;;10.90;99.90;;;;;;6240369;28;20073;-77
2023/10/19 00:16:10;;;;;;;28.25;15.38;;;10.90;99.90;;;;;;6243833;28;20417;-77
2023/10/19 00:19:19;;;;;;;27.10;15.90;;;10.90;99.90;;;;;;6245267;28;20124;-76
2023/10/19 00:22:21;;;;;;;23.02;14.02;;;10.90;99.90;;;;;;6240082;28;20045;-77
2023/10/19 00:25:24;;;;;;;20.60;14.05;;;10.90;99.90;;;;;;6242800;28;20414;-76
2023/10/19 00:28:27;;;;;;;25.08;14.32;;;10.90;99.90;;;;;;6245722;28;20498;-77
2023/10/19 00:31:34;;;;;;;22.30;13.52;;;10.90;99.90;;;;;;6245210;28;20506;-76
2023/10/19 00:34:38;;;;;;;21.15;13.13;;;10.90;99.90;;;;;;6245409;28;20075;-77
2023/10/19 00:37:44;;;;;;;27.08;15.45;;;10.90;99.90;;;;;;6236659;28;20056;-76
2023/10/19 00:40:52;;;;;;;22.65;13.68;;;10.90;99.90;;;;;;6238038;28;20045;-76
2023/10/19 00:44:02;;;;;;;20.45;12.98;;;10.90;99.90;;;;;;6243591;28;20544;-73
2023/10/19 00:47:12;;;;;;;22.25;13.05;;;10.90;99.90;;;;;;6231149;28;20042;-74
2023/10/19 00:50:15;;;;;;;18.80;13.10;;;10.90;99.90;;;;;;6257372;28;20172;-76
2023/10/19 00:53:17;;;;;;;29.20;15.43;;;10.90;99.90;;;;;;6250165;28;20525;-74
2023/10/19 00:56:19;;;;;;;23.42;13.15;;;10.90;99.90;;;;;;6247033;28;20049;-77
2023/10/19 00:59:23;;;;;;;24.92;13.77;;;11.00;99.90;;;;;;6238789;28;20071;-77
2023/10/19 01:02:29;;;;;;;34.15;15.43;;;11.00;99.90;;;;;;6249979;28;20149;-77
2023/10/19 01:05:35;;;;;;;25.52;14.77;;;11.00;99.90;;;;;;6250050;28;20041;-77
2023/10/19 01:08:42;;;;;;;30.45;15.20;;;11.00;99.90;;;;;;6250233;28;20131;-76
2023/10/19 01:11:49;;;;;;;24.25;13.98;;;11.00;99.90;;;;;;6249632;28;20175;-76
2023/10/19 01:15:07;;;;;;;25.98;16.13;;;11.00;99.90;;;;;;6242260;28;20076;-76
2023/10/19 01:18:14;;;;;;;28.52;15.10;;;11.00;99.90;;;;;;6249216;28;20515;-78
2023/10/19 01:21:18;;;;;;;27.38;14.95;;;11.00;99.90;;;;;;6249871;28;20184;-76
2023/10/19 01:24:39;;;;;;;21.17;12.77;;;11.00;99.90;;;;;;6249907;28;20136;-76
2023/10/19 01:27:41;;;;;;;25.55;15.13;;;11.00;99.90;;;;;;6240395;28;20057;-76
2023/10/19 01:30:44;;;;;;;19.55;14.88;;;11.00;99.90;;;;;;6249403;28;20047;-76
2023/10/19 01:33:46;;;;;;;22.73;13.75;;;11.00;99.90;;;;;;6240969;28;20038;-76
2023/10/19 01:36:50;;;;;;;30.75;15.40;;;11.10;99.90;;;;;;6233207;28;20120;-79
2023/10/19 01:39:53;;;;;;;22.52;15.88;;;11.10;99.90;;;;;;6241747;28;20132;-76
2023/10/19 01:42:54;;;;;;;29.88;15.07;;;11.10;99.90;;;;;;6248939;28;20409;-76
2023/10/19 01:45:55;;;;;;;24.13;14.52;;;11.20;99.90;;;;;;6247473;28;20045;-77
2023/10/19 01:48:57;;;;;;;22.90;13.63;;;11.20;99.90;;;;;;6224107;28;20050;-76
2023/10/19 01:52:00;;;;;;;28.17;13.48;;;11.20;99.90;;;;;;6234105;28;20524;-76
2023/10/19 01:55:07;;;;;;;25.95;13.90;;;11.20;99.90;;;;;;6249020;28;20045;-77
2023/10/19 01:58:09;;;;;;;27.37;14.47;;;11.30;99.90;;;;;;6239930;28;20034;-77
2023/10/19 02:01:19;;;;;;;24.27;13.73;;;11.30;99.90;;;;;;6243883;28;20053;-76
2023/10/19 02:04:21;;;;;;;21.02;12.40;;;11.30;99.90;;;;;;6248987;28;20045;-74
2023/10/19 02:07:23;;;;;;;23.75;14.40;;;11.30;99.90;;;;;;6247908;28;20041;-74
2023/10/19 02:10:27;;;;;;;23.35;13.50;;;11.30;99.90;;;;;;6248500;28;20502;-74
2023/10/19 02:13:29;;;;;;;20.58;15.02;;;11.30;99.90;;;;;;6248290;28;20041;-77
2023/10/19 02:16:32;;;;;;;19.17;12.60;;;11.40;99.90;;;;;;6248636;28;20652;-76
2023/10/19 02:19:34;;;;;;;23.77;14.60;;;11.40;99.90;;;;;;6248110;28;20052;-76
2023/10/19 02:22:35;;;;;;;20.00;13.00;;;11.50;99.90;;;;;;6248032;28;20395;-75
2023/10/19 02:25:38;;;;;;;20.85;12.73;;;11.50;99.90;;;;;;6245797;28;20049;-74
2023/10/19 02:28:41;;;;;;;21.15;12.70;;;11.50;99.90;;;;;;6248709;28;20135;-77
2023/10/19 02:31:44;;;;;;;24.08;13.98;;;11.60;99.90;;;;;;6247864;28;20086;-74
2023/10/19 02:34:46;;;;;;;19.35;12.05;;;11.60;99.90;;;;;;6223436;28;20045;-74
2023/10/19 02:37:48;;;;;;;22.23;12.15;;;11.60;99.90;;;;;;6222869;28;20046;-74
2023/10/19 02:40:51;;;;;;;19.98;12.90;;;11.70;99.90;;;;;;6240037;28;20425;-75
2023/10/19 02:44:01;;;;;;;18.85;11.43;;;11.70;99.90;;;;;;6247562;28;20413;-76
2023/10/19 02:47:08;;;;;;;16.98;12.57;;;11.70;99.90;;;;;;6229755;28;20053;-76
2023/10/19 02:50:13;;;;;;;22.10;13.23;;;11.70;99.90;;;;;;6225608;28;20176;-77
2023/10/19 02:53:14;;;;;;;17.65;11.52;;;11.70;99.90;;;;;;6247351;28;20934;-77
2023/10/19 02:56:18;;;;;;;19.67;12.48;;;11.70;99.90;;;;;;6248078;28;20049;-77
2023/10/19 02:59:22;;;;;;;18.70;12.60;;;11.70;99.90;;;;;;6247208;28;20072;-77
2023/10/19 03:02:25;;;;;;;19.65;11.82;;;11.70;99.90;;;;;;6242886;28;20037;-77
2023/10/19 03:05:26;;;;;;;20.02;10.90;;;11.70;99.90;;;;;;6255674;28;20041;-77
2023/10/19 03:08:28;;;;;;;21.45;12.00;;;11.70;99.90;;;;;;6248752;28;20040;-74
2023/10/19 03:11:32;;;;;;;15.82;11.60;;;11.70;99.90;;;;;;6242669;28;20069;-77
2023/10/19 03:14:34;;;;;;;18.92;11.55;;;11.70;99.90;;;;;;6244721;28;20498;-78
2023/10/19 03:17:36;;;;;;;18.40;12.43;;;11.70;99.90;;;;;;6246959;28;20045;-77
2023/10/19 03:20:41;;;;;;;21.35;12.27;;;11.70;99.90;;;;;;6229064;28;20042;-77
2023/10/19 03:23:43;;;;;;;21.95;11.48;;;11.70;99.90;;;;;;6223303;28;20042;-77
2023/10/19 03:26:48;;;;;;;21.73;11.82;;;11.70;99.90;;;;;;6222467;28;20037;-77
2023/10/19 03:29:54;;;;;;;23.58;13.85;;;11.70;99.90;;;;;;6246475;28;20041;-76
2023/10/19 03:32:59;;;;;;;25.08;12.70;;;11.70;99.90;;;;;;6246987;28;20049;-77
2023/10/19 03:36:01;;;;;;;21.05;12.50;;;11.70;99.90;;;;;;6246888;28;20056;-76
2023/10/19 03:39:11;;;;;;;16.25;11.52;;;11.70;99.90;;;;;;6245972;28;20135;-74
2023/10/19 03:42:14;;;;;;;21.10;13.93;;;11.70;99.90;;;;;;6243119;28;20045;-75
2023/10/19 03:45:16;;;;;;;19.38;12.15;;;11.70;99.90;;;;;;6224404;28;20056;-76
2023/10/19 03:48:23;;;;;;;23.45;12.63;;;11.60;99.90;;;;;;6226534;28;20069;-77
2023/10/19 03:51:26;;;;;;;18.30;10.55;;;11.60;99.90;;;;;;6134374;28;20058;-77
2023/10/19 03:54:28;;;;;;;14.98;11.02;;;11.60;99.90;;;;;;6234826;28;20049;-76
2023/10/19 03:57:35;;;;;;;14.45;10.88;;;11.60;99.90;;;;;;6245284;28;20112;-76
2023/10/19 04:00:36;;;;;;;18.00;10.95;;;11.50;99.90;;;;;;6245969;28;20045;-74
2023/10/19 04:03:38;;;;;;;20.98;10.73;;;11.40;99.90;;;;;;6245684;28;20049;-76
2023/10/19 04:06:40;;;;;;;16.17;10.15;;;11.40;99.90;;;;;;6245480;28;20047;-74
2023/10/19 04:09:57;;;;;;;17.13;9.55;;;11.30;99.90;;;;;;6246100;28;20053;-74
2023/10/19 04:13:00;;;;;;;21.50;10.00;;;11.20;99.90;;;;;;6256462;28;20045;-74
2023/10/19 04:16:02;;;;;;;13.20;10.32;;;11.10;99.90;;;;;;6245314;28;20132;-74
2023/10/19 04:19:04;;;;;;;15.45;10.10;;;11.00;99.90;;;;;;6228939;28;20502;-74
2023/10/19 04:22:11;;;;;;;26.63;10.38;;;10.90;99.90;;;;;;6245562;28;20047;-74
2023/10/19 04:25:12;;;;;;;23.50;10.60;;;10.80;99.90;;;;;;6228062;28;20057;-77
2023/10/19 04:28:17;;;;;;;17.23;10.30;;;10.70;99.90;;;;;;6244476;28;20049;-77
2023/10/19 04:31:19;;;;;;;13.43;8.32;;;10.60;99.90;;;;;;6242105;28;20038;-76
2023/10/19 04:34:21;;;;;;;17.30;10.07;;;10.50;99.90;;;;;;6240673;28;20046;-76
2023/10/19 04:37:24;;;;;;;13.18;9.18;;;10.50;99.90;;;;;;6244626;28;20056;-76
2023/10/19 04:40:25;;;;;;;14.13;9.18;;;10.40;99.90;;;;;;6245288;28;20103;-76
2023/10/19 04:43:28;;;;;;;16.27;9.52;;;10.30;99.90;;;;;;6228564;28;20422;-76
2023/10/19 04:46:30;;;;;;;14.95;9.10;;;10.30;99.90;;;;;;6244895;28;20046;-76
2023/10/19 04:49:32;;;;;;;13.65;8.27;;;10.20;99.90;;;;;;6240067;28;20052;-76
2023/10/19 04:52:34;;;;;;;15.18;9.98;;;10.10;99.90;;;;;;6220409;28;20046;-77
2023/10/19 04:55:35;;;;;;;17.20;9.05;;;10.10;99.90;;;;;;6241391;28;20041;-76
2023/10/19 04:58:39;;;;;;;17.42;8.73;;;10.00;99.90;;;;;;6244650;28;20487;-76
2023/10/19 05:01:41;;;;;;;13.55;9.18;;;10.00;99.90;;;;;;6245254;28;20046;-76
2023/10/19 05:04:46;;;;;;;17.88;11.23;;;10.00;99.90;;;;;;6245234;28;20095;-77
2023/10/19 05:07:47;;;;;;;21.70;11.75;;;10.00;99.90;;;;;;6245892;28;20045;-76
2023/10/19 05:10:49;;;;;;;23.25;13.57;;;10.10;99.90;;;;;;6245403;28;20054;-76
2023/10/19 05:13:52;;;;;;;21.15;13.93;;;10.20;99.90;;;;;;6245218;28;20045;-77
2023/10/19 05:16:54;;;;;;;26.55;12.45;;;10.40;99.90;;;;;;6235982;28;20046;-77
2023/10/19 05:19:56;;;;;;;19.88;11.65;;;10.50;99.90;;;;;;6246195;28;20429;-76
2023/10/19 05:22:59;;;;;;;16.42;11.07;;;10.50;99.90;;;;;;6257924;28;20042;-76
2023/10/19 05:26:03;;;;;;;18.80;11.35;;;10.40;99.90;;;;;;6220519;28;20100;-76
2023/10/19 05:29:06;;;;;;;13.75;9.02;;;10.40;99.90;;;;;;6220093;28;20038;-75
2023/10/19 05:32:09;;;;;;;14.00;9.65;;;10.30;99.90;;;;;;6224247;28;20699;-76
2023/10/19 05:35:13;;;;;;;13.27;9.50;;;10.20;99.90;;;;;;6249184;28;20038;-76
2023/10/19 05:38:14;;;;;;;16.27;9.35;;;10.10;99.90;;;;;;6249307;28;20080;-76
2023/10/19 05:41:18;;;;;;;16.60;9.18;;;10.10;99.90;;;;;;6249062;28;20041;-76
2023/10/19 05:44:24;;;;;;;19.95;11.80;;;10.00;99.90;;;;;;6248903;28;20049;-76
2023/10/19 05:47:26;;;;;;;15.07;10.82;;;10.00;99.90;;;;;;6247603;28;20098;-77
2023/10/19 05:50:28;;;;;;;22.08;11.57;;;10.00;99.90;;;;;;6247479;28;20701;-76
2023/10/19 05:53:30;;;;;;;19.92;13.23;;;10.00;99.90;;;;;;6247215;28;20046;-75
2023/10/19 05:56:34;;;;;;;21.27;10.70;;;10.10;99.90;;;;;;6247163;28;20072;-77
2023/10/19 05:59:37;;;;;;;17.85;11.25;;;10.10;99.90;;;;;;6246466;28;20064;-77
2023/10/19 06:02:39;;;;;;;14.00;8.45;;;10.20;99.90;;;;;;6246633;28;20051;-77
2023/10/19 06:05:43;;;;;;;13.38;9.55;;;10.10;99.90;;;;;;6247260;28;20045;-77
2023/10/19 06:08:44;;;;;;;16.05;10.32;;;10.10;99.90;;;;;;6246737;28;20040;-76
2023/10/19 06:11:46;;;;;;;17.42;9.75;;;10.10;99.90;;;;;;6247106;28;20120;-76
2023/10/19 06:14:49;;;;;;;18.92;11.13;;;10.00;99.90;;;;;;6246183;28;20418;-77
2023/10/19 06:17:51;;;;;;;16.23;10.38;;;10.00;99.90;;;;;;6246999;28;20050;-76
2023/10/19 06:20:54;;;;;;;20.50;11.20;;;10.10;99.90;;;;;;6246178;28;20144;-77
2023/10/19 06:23:56;;;;;;;19.90;12.80;;;10.10;99.90;;;;;;6246914;28;20142;-77
2023/10/19 06:26:58;;;;;;;20.35;12.43;;;10.10;99.90;;;;;;6242892;28;20045;-76
2023/10/19 06:30:02;;;;;;;13.13;9.65;;;10.10;99.90;;;;;;6258045;28;20049;-77
2023/10/19 06:33:04;;;;;;;16.42;9.80;;;10.10;99.90;;;;;;6238832;28;20434;-77
2023/10/19 06:36:06;;;;;;;18.23;10.10;;;10.10;99.90;;;;;;6246384;28;20084;-76
2023/10/19 06:39:08;;;;;;;20.83;9.52;;;10.10;99.90;;;;;;6245228;28;20406;-77
2023/10/19 06:42:13;;;;;;;18.27;10.00;;;10.10;99.90;;;;;;6230576;28;20072;-77
2023/10/19 06:45:18;;;;;;;18.38;9.65;;;10.10;99.90;;;;;;6244227;28;20502;-77
2023/10/19 06:48:20;;;;;;;15.32;10.10;;;10.20;99.90;;;;;;6186713;28;1043676;-77
2023/10/19 06:51:23;;;;;;;21.17;9.30;;;10.30;99.90;;;;;;6243582;28;20536;-77
2023/10/19 06:54:25;;;;;;;20.42;11.38;;;10.30;99.90;;;;;;6250118;28;20045;-77
2023/10/19 06:57:27;;;;;;;21.05;9.85;;;10.40;99.90;;;;;;6223349;28;20418;-77
2023/10/19 07:00:30;;;;;;;21.33;10.77;;;10.50;99.90;;;;;;6195123;28;20049;-77
2023/10/19 07:03:32;;;;;;;17.52;10.82;;;10.60;99.90;;;;;;6211592;28;20049;-77
2023/10/19 07:06:33;;;;;;;19.95;10.40;;;10.70;99.90;;;;;;6212775;28;20054;-79
2023/10/19 07:09:36;;;;;;;20.02;10.02;;;10.80;99.90;;;;;;6217344;28;20046;-78
2023/10/19 07:12:38;;;;;;;24.23;11.15;;;10.90;99.90;;;;;;6208067;28;20042;-78
2023/10/19 07:15:41;;;;;;;23.20;11.45;;;11.00;99.90;;;;;;6195775;28;20049;-78
2023/10/19 07:18:43;;;;;;;25.75;11.77;;;11.00;99.90;;;;;;6200161;28;20077;-80
2023/10/19 07:21:48;;;;;;;19.27;10.98;;;11.10;99.90;;;;;;6200690;28;20046;-78
2023/10/19 07:24:51;;;;;;;16.88;10.07;;;11.20;99.90;;;;;;6200410;28;20080;-77
2023/10/19 07:27:53;;;;;;;24.85;10.02;;;11.20;99.90;;;;;;6199832;28;20050;-77
2023/10/19 07:30:56;;;;;;;20.85;11.63;;;11.20;99.90;;;;;;6199342;28;20049;-76
2023/10/19 07:33:58;;;;;;;19.73;11.70;;;11.30;99.90;;;;;;6200601;28;20556;-79
2023/10/19 07:37:00;;;;;;;20.20;11.43;;;11.40;99.90;;;;;;6209629;28;20042;-78
2023/10/19 07:40:05;;;;;;;20.77;11.80;;;11.50;99.90;;;;;;6199274;28;20042;-78
2023/10/19 07:43:08;;;;;;;20.77;12.50;;;11.60;99.90;;;;;;6213910;28;20694;-77
2023/10/19 07:46:11;;;;;;;20.20;12.05;;;11.70;99.90;;;;;;6199625;28;20057;-78
2023/10/19 07:49:14;;;;;;;20.80;12.15;;;11.80;99.90;;;;;;6200222;28;20077;-77
2023/10/19 07:52:16;;;;;;;19.23;11.52;;;12.00;99.90;;;;;;6188244;28;20054;-78
2023/10/19 07:55:18;;;;;;;20.50;11.82;;;12.20;99.90;;;;;;6187683;28;20478;-79
2023/10/19 07:58:20;;;;;;;20.27;13.02;;;12.30;99.90;;;;;;6203603;28;20057;-79
2023/10/19 08:01:23;;;;;;;23.38;12.38;;;12.60;99.90;;;;;;6248497;28;20071;-77
2023/10/19 08:04:27;;;;;;;24.95;12.50;;;12.80;99.90;;;;;;6241781;28;20046;-77
2023/10/19 08:07:30;;;;;;;27.83;14.10;;;13.00;99.90;;;;;;6235045;28;20128;-77
2023/10/19 08:10:32;;;;;;;26.20;13.98;;;13.30;99.90;;;;;;6250479;28;20388;-78
2023/10/19 08:13:33;;;;;;;24.75;14.05;;;13.60;99.90;;;;;;6240169;28;20060;-76
2023/10/19 08:16:36;;;;;;;24.35;15.27;;;13.80;99.90;;;;;;6251240;28;20056;-78
2023/10/19 08:19:38;;;;;;;27.17;14.30;;;13.90;99.90;;;;;;6246903;28;20422;-77
2023/10/19 08:22:40;;;;;;;25.83;15.00;;;14.10;99.90;;;;;;6239896;28;20068;-78
2023/10/19 08:25:42;;;;;;;27.67;14.93;;;14.40;99.90;;;;;;6250160;28;20064;-78
2023/10/19 08:28:45;;;;;;;26.52;14.05;;;14.60;99.90;;;;;;6242382;28;20054;-78
2023/10/19 08:31:48;;;;;;;24.95;14.15;;;14.80;99.90;;;;;;6232910;28;20050;-78
2023/10/19 08:34:50;;;;;;;26.20;14.27;;;14.90;99.90;;;;;;6235148;28;20048;-77
2023/10/19 08:37:52;;;;;;;20.23;12.98;;;15.00;99.90;;;;;;6241702;28;20451;-78
2023/10/19 08:40:54;;;;;;;18.52;12.73;;;15.00;99.90;;;;;;6251480;28;20117;-77
2023/10/19 08:43:56;;;;;;;17.75;13.05;;;15.10;99.90;;;;;;6261222;28;20060;-77
2023/10/19 08:47:00;;;;;;;17.67;12.88;;;15.10;99.90;;;;;;6251829;28;20053;-78
2023/10/19 08:50:02;;;;;;;16.23;10.35;;;15.20;99.90;;;;;;6254520;28;20044;-77
2023/10/19 08:53:05;;;;;;;14.32;9.68;;;15.30;99.90;;;;;;6251964;28;20060;-77
2023/10/19 08:56:07;;;;;;;16.42;10.55;;;15.40;99.90;;;;;;6250231;28;20140;-77
2023/10/19 08:59:10;;;;;;;14.73;10.60;;;15.50;99.90;;;;;;6240388;28;20433;-78
2023/10/19 09:02:13;;;;;;;17.63;11.32;;;15.50;99.90;;;;;;6252109;28;20118;-78
2023/10/19 09:05:22;;;;;;;13.85;9.77;;;15.70;99.90;;;;;;6242673;28;20045;-78
2023/10/19 09:08:24;;;;;;;15.40;9.75;;;15.70;99.90;;;;;;6251496;28;20053;-78
2023/10/19 09:11:26;;;;;;;11.18;9.07;;;15.80;99.90;;;;;;6247629;28;20503;-78
2023/10/19 09:14:36;;;;;;;15.38;8.95;;;15.90;99.90;;;;;;6253547;28;20049;-78
2023/10/19 09:17:39;;;;;;;9.68;8.73;;;16.10;99.90;;;;;;6253786;28;20041;-77
2023/10/19 09:20:52;;;;;;;9.90;7.97;;;16.20;99.90;;;;;;6257152;28;20130;-78
2023/10/19 09:23:55;;;;;;;9.10;7.13;;;16.30;99.90;;;;;;6257374;28;20045;-78
2023/10/19 09:26:57;;;;;;;8.88;7.30;;;16.30;99.90;;;;;;6258031;28;20069;-76
2023/10/19 09:29:59;;;;;;;13.85;8.45;;;16.30;99.90;;;;;;6262693;28;20056;-78
2023/10/19 09:33:04;;;;;;;11.63;8.27;;;16.40;99.90;;;;;;6248452;28;20049;-78
2023/10/19 09:36:12;;;;;;;8.27;7.35;;;16.50;99.90;;;;;;6256432;28;20514;-76
2023/10/19 09:39:16;;;;;;;10.43;7.07;;;16.60;99.90;;;;;;6255231;28;20215;-78
2023/10/19 09:42:18;;;;;;;8.80;6.50;;;16.60;99.90;;;;;;6256290;28;20068;-77
2023/10/19 09:45:23;;;;;;;7.47;5.97;;;16.70;99.90;;;;;;6255821;28;20041;-77
2023/10/19 09:48:26;;;;;;;11.63;7.20;;;16.80;99.90;;;;;;6255355;28;20049;-77
2023/10/19 09:51:29;;;;;;;13.90;6.57;;;16.90;99.90;;;;;;6260189;28;20032;-74
2023/10/19 09:54:47;;;;;;;9.93;6.13;;;16.90;99.90;;;;;;6258519;28;20165;-77
2023/10/19 09:57:54;;;;;;;7.07;6.20;;;16.90;99.90;;;;;;6254720;28;20108;-78
2023/10/19 10:00:57;;;;;;;11.25;6.78;;;16.90;99.90;;;;;;6254839;28;20045;-78
2023/10/19 10:04:00;;;;;;;11.23;6.68;;;16.90;99.90;;;;;;6246846;28;20045;-78
2023/10/19 10:07:06;;;;;;;12.27;6.43;;;16.90;99.90;;;;;;6254473;28;20135;-77
2023/10/19 10:10:09;;;;;;;7.60;5.43;;;16.90;99.90;;;;;;6255726;28;20057;-78
2023/10/19 10:13:39;;;;;;;6.80;5.97;;;16.80;99.90;;;;;;6256327;28;20053;-77
2023/10/19 10:16:41;;;;;;;6.00;5.18;;;16.80;99.90;;;;;;6255634;28;20423;-76
2023/10/19 10:19:44;;;;;;;8.65;5.63;;;16.70;99.90;;;;;;6255419;28;20055;-76
2023/10/19 10:22:47;;;;;;;6.85;5.25;;;16.60;99.90;;;;;;6255724;28;20053;-78
2023/10/19 10:25:50;;;;;;;10.07;6.65;;;16.50;99.90;;;;;;6255570;28;20057;-76
2023/10/19 10:29:13;;;;;;;9.68;5.05;;;16.40;99.90;;;;;;6255872;28;20101;-78
2023/10/19 10:32:48;;;;;;;8.40;5.63;;;16.30;99.90;;;;;;6239612;28;20060;-74
2023/10/19 10:36:00;;;;;;;9.18;5.25;;;16.20;99.90;;;;;;6252543;28;20474;-78
2023/10/19 10:39:05;;;;;;;8.20;6.75;;;16.10;99.90;;;;;;6247421;28;20037;-77
2023/10/19 10:42:08;;;;;;;7.53;5.80;;;16.00;99.90;;;;;;6248701;28;20050;-76
2023/10/19 10:45:20;;;;;;;9.70;6.38;;;15.90;99.90;;;;;;6238695;28;20070;-78
2023/10/19 10:48:22;;;;;;;10.55;6.85;;;15.80;99.90;;;;;;6239324;28;20056;-78
2023/10/19 10:51:27;;;;;;;11.73;7.15;;;15.70;99.90;;;;;;6236638;28;20045;-78
2023/10/19 10:54:29;;;;;;;8.48;6.65;;;15.70;99.90;;;;;;6229782;28;20053;-79
2023/10/19 10:57:34;;;;;;;9.85;6.82;;;15.60;99.90;;;;;;6227645;28;20429;-78
2023/10/19 11:00:43;;;;;;;12.43;6.93;;;15.50;99.90;;;;;;6250272;28;20597;-74
2023/10/19 11:03:46;;;;;;;14.55;8.02;;;15.50;99.90;;;;;;6250723;28;20502;-79
2023/10/19 11:06:55;;;;;;;12.13;9.23;;;15.50;99.90;;;;;;6249880;28;20049;-77
2023/10/19 11:09:57;;;;;;;13.90;7.85;;;15.50;99.90;;;;;;6253335;28;20045;-78
2023/10/19 11:13:01;;;;;;;12.48;7.05;;;15.40;99.90;;;;;;6243104;28;20127;-78
2023/10/19 11:16:07;;;;;;;10.70;9.57;;;15.30;99.90;;;;;;6250754;28;20037;-78
2023/10/19 11:19:09;;;;;;;11.50;9.48;;;15.20;99.90;;;;;;6253604;28;20052;-78
2023/10/19 11:22:12;;;;;;;11.07;6.78;;;15.20;99.90;;;;;;6250235;28;20132;-74
2023/10/19 11:25:24;;;;;;;9.93;7.80;;;15.20;99.90;;;;;;6252518;28;20159;-76
2023/10/19 11:28:28;;;;;;;9.70;7.80;;;15.10;99.90;;;;;;6251753;28;20534;-78
2023/10/19 11:31:37;;;;;;;10.75;7.60;;;15.10;99.90;;;;;;6255766;28;20057;-77
2023/10/19 11:34:39;;;;;;;13.85;8.10;;;15.10;99.90;;;;;;6243177;28;20415;-75
2023/10/19 11:37:50;;;;;;;12.23;9.23;;;15.10;99.90;;;;;;6250978;28;20057;-76
2023/10/19 11:40:52;;;;;;;12.00;8.07;;;15.10;99.90;;;;;;6248892;28;20037;-77
2023/10/19 11:43:54;;;;;;;13.73;9.10;;;15.10;99.90;;;;;;6253368;28;20053;-76
2023/10/19 11:46:56;;;;;;;13.50;9.90;;;15.20;99.90;;;;;;6248707;28;20064;-74
2023/10/19 11:49:58;;;;;;;27.25;15.95;;;15.30;99.90;;;;;;6246548;28;20053;-74
2023/10/19 11:53:01;;;;;;;23.40;16.65;;;15.40;99.90;;;;;;6246158;28;20046;-75
2023/10/19 11:56:05;;;;;;;23.02;14.13;;;15.40;99.90;;;;;;6245605;28;20048;-75
2023/10/19 11:59:07;;;;;;;34.33;23.40;;;15.60;99.90;;;;;;6245182;28;20042;-76
2023/10/19 12:02:09;;;;;;;21.25;14.43;;;15.60;99.90;;;;;;6246235;28;20060;-76
2023/10/19 12:05:11;;;;;;;22.40;12.35;;;15.70;99.90;;;;;;6237385;28;20540;-76
2023/10/19 12:08:14;;;;;;;20.23;13.25;;;15.80;99.90;;;;;;6237314;28;20414;-76
2023/10/19 12:11:16;;;;;;;17.65;11.63;;;15.90;99.90;;;;;;6256798;28;20045;-76
2023/10/19 12:14:18;;;;;;;16.70;12.25;;;15.90;99.90;;;;;;6239258;28;20060;-76
2023/10/19 12:17:21;;;;;;;19.15;13.27;;;16.00;99.90;;;;;;6228851;28;20446;-76
2023/10/19 12:20:23;;;;;;;18.77;12.60;;;16.00;99.90;;;;;;6237540;28;20041;-76
2023/10/19 12:23:27;;;;;;;17.40;10.25;;;16.10;99.90;;;;;;6245468;28;20052;-76
2023/10/19 12:26:29;;;;;;;14.23;10.48;;;16.20;99.90;;;;;;6245956;28;20053;-76
2023/10/19 12:29:31;;;;;;;14.45;10.23;;;16.30;99.90;;;;;;6235542;28;20368;-75
2023/10/19 12:32:35;;;;;;;14.35;9.93;;;16.50;99.90;;;;;;6233735;28;20072;-75
2023/10/19 12:35:45;;;;;;;13.68;9.93;;;16.50;99.90;;;;;;6245188;28;20049;-75
2023/10/19 12:38:49;;;;;;;12.85;8.10;;;16.50;99.90;;;;;;6245038;28;20376;-75
2023/10/19 12:41:50;;;;;;;24.27;11.70;;;16.50;99.90;;;;;;6244365;28;20046;-76
2023/10/19 12:44:52;;;;;;;11.20;9.43;;;16.50;99.90;;;;;;6245216;28;20516;-77
2023/10/19 12:47:54;;;;;;;10.43;8.25;;;16.50;99.90;;;;;;6245048;28;20414;-75
2023/10/19 12:50:56;;;;;;;12.75;9.73;;;16.40;99.90;;;;;;6232271;28;20049;-75
2023/10/19 12:54:03;;;;;;;13.90;8.60;;;16.40;99.90;;;;;;6234236;28;20516;-76
2023/10/19 12:57:07;;;;;;;10.13;9.02;;;16.40;99.90;;;;;;6245027;28;20136;-76
2023/10/19 13:03:40;;;;;;;12.43;8.55;;;16.40;99.90;;;;;;6298088;27;20358;-77
2023/10/19 13:06:41;;;;;;;12.48;8.95;;;16.40;99.90;;;;;;6265296;28;20045;-76
2023/10/19 13:09:44;;;;;;;11.23;8.10;;;16.40;99.90;;;;;;6258901;28;20053;-76
2023/10/19 13:12:46;;;;;;;14.68;9.68;;;16.40;99.90;;;;;;6250569;28;20049;-76
2023/10/19 13:15:48;;;;;;;13.20;8.82;;;16.40;99.90;;;;;;6258811;28;20528;-76
2023/10/19 13:18:51;;;;;;;14.90;9.30;;;16.40;99.90;;;;;;6263434;28;20125;-76
2023/10/19 13:21:54;;;;;;;13.40;9.57;;;16.30;99.90;;;;;;6266087;28;20041;-76
2023/10/19 13:24:55;;;;;;;13.20;9.27;;;16.30;99.90;;;;;;6258449;28;20053;-76
2023/10/19 13:27:57;;;;;;;12.45;9.30;;;16.30;99.90;;;;;;6254393;28;20060;-77
2023/10/19 13:30:59;;;;;;;15.32;9.00;;;16.30;99.90;;;;;;6264591;28;20448;-76
2023/10/19 13:34:03;;;;;;;13.50;9.43;;;16.30;99.90;;;;;;6259610;28;20049;-77
2023/10/19 13:37:07;;;;;;;14.70;9.32;;;16.20;99.90;;;;;;6267099;28;20057;-76
2023/10/19 13:40:10;;;;;;;13.45;10.00;;;16.10;99.90;;;;;;6267795;28;20105;-75
2023/10/19 13:43:14;;;;;;;16.63;9.30;;;16.10;99.90;;;;;;6258098;28;20049;-76
2023/10/19 13:46:16;;;;;;;15.95;9.35;;;16.00;99.90;;;;;;6266358;28;20052;-77
2023/10/19 13:49:19;;;;;;;16.90;10.50;;;16.00;99.90;;;;;;6258814;28;20418;-76
2023/10/19 13:52:21;;;;;;;17.40;9.20;;;15.90;99.90;;;;;;6257801;28;20091;-77
2023/10/19 13:55:23;;;;;;;12.48;9.38;;;15.80;99.90;;;;;;6241116;28;20041;-76
2023/10/19 13:58:25;;;;;;;12.57;9.77;;;15.80;99.90;;;;;;6241479;28;20053;-77
2023/10/19 14:01:28;;;;;;;13.55;9.85;;;15.70;99.90;;;;;;6241090;28;20407;-77
2023/10/19 14:04:31;;;;;;;19.60;10.57;;;15.70;99.90;;;;;;6265043;28;20096;-76
2023/10/19 14:07:33;;;;;;;13.15;9.60;;;15.70;99.90;;;;;;6240661;28;20052;-77
2023/10/19 14:10:35;;;;;;;19.77;9.77;;;15.70;99.90;;;;;;6241042;28;20057;-76
2023/10/19 14:13:37;;;;;;;123.22;69.28;;;15.70;99.90;;;;;;6232560;28;20046;-77
2023/10/19 14:16:40;;;;;;;35.58;26.00;;;15.70;99.90;;;;;;6226563;28;20130;-77
2023/10/19 14:19:44;;;;;;;21.40;13.77;;;15.70;99.90;;;;;;6231717;28;20054;-76
2023/10/19 14:22:50;;;;;;;20.13;11.98;;;15.80;99.90;;;;;;6226452;28;20050;-76
2023/10/19 14:25:51;;;;;;;22.92;11.20;;;15.90;99.90;;;;;;6225832;28;20069;-77
2023/10/19 14:28:53;;;;;;;18.17;11.10;;;15.90;99.90;;;;;;6227040;28;20513;-76
2023/10/19 14:31:55;;;;;;;17.55;11.18;;;16.00;99.90;;;;;;6247957;28;20037;-75
2023/10/19 14:34:59;;;;;;;19.30;11.15;;;16.00;99.90;;;;;;6253674;28;20434;-77
2023/10/19 14:38:01;;;;;;;22.65;12.45;;;16.00;99.90;;;;;;6247135;28;20045;-77
2023/10/19 14:41:02;;;;;;;21.10;15.27;;;15.90;99.90;;;;;;6249132;28;20610;-77
2023/10/19 14:44:06;;;;;;;20.70;13.32;;;15.90;99.90;;;;;;6249495;28;20060;-77
2023/10/19 14:47:09;;;;;;;25.25;14.00;;;16.00;99.90;;;;;;6248178;28;20045;-77
2023/10/19 14:50:13;;;;;;;20.80;13.40;;;16.00;99.90;;;;;;6191368;28;20057;-78
2023/10/19 14:53:15;;;;;;;18.10;11.85;;;16.10;99.90;;;;;;6242952;28;20057;-76
2023/10/19 14:56:17;;;;;;;17.63;11.82;;;16.20;99.90;;;;;;6242351;28;20574;-78
2023/10/19 14:59:19;;;;;;;18.15;13.32;;;16.20;99.90;;;;;;6245785;28;20422;-77
2023/10/19 15:02:23;;;;;;;30.15;12.77;;;16.20;99.90;;;;;;6249952;28;20060;-78
2023/10/19 15:05:28;;;;;;;17.45;11.82;;;16.20;99.90;;;;;;6240833;28;20057;-77
2023/10/19 15:08:31;;;;;;;14.82;10.68;;;16.10;99.90;;;;;;6243894;28;20426;-74
2023/10/19 15:11:32;;;;;;;20.35;13.82;;;16.00;99.90;;;;;;6255280;28;20041;-78
2023/10/19 15:14:34;;;;;;;20.02;12.13;;;16.00;99.90;;;;;;6246034;28;20045;-77
2023/10/19 15:17:37;;;;;;;21.70;12.43;;;15.90;99.90;;;;;;6236080;28;20137;-76
2023/10/19 15:20:41;;;;;;;18.67;11.82;;;15.90;99.90;;;;;;6226966;28;20056;-78
2023/10/19 15:23:43;;;;;;;16.15;12.05;;;15.90;99.90;;;;;;6241555;28;20087;-77
2023/10/19 15:26:44;;;;;;;19.67;10.93;;;15.90;99.90;;;;;;6247770;28;20063;-78
2023/10/19 15:29:47;;;;;;;18.40;11.25;;;15.90;99.90;;;;;;6248421;28;20052;-77
2023/10/19 15:32:49;;;;;;;18.88;12.10;;;15.90;99.90;;;;;;6248008;28;20050;-78
2023/10/19 15:35:52;;;;;;;17.42;10.55;;;15.90;99.90;;;;;;6245324;28;20055;-79
2023/10/19 15:38:54;;;;;;;17.40;10.90;;;15.90;99.90;;;;;;6249883;28;20481;-76